Time;durP1;ratioP1;P1;durP2;ratioP2;P2;SDS_P1;SDS_P2;PMS_P1;PMS_P2;Temp;Humidity;BMP_temperature;BMP_pressure;BME280_temperature;BME280_humidity;BME280_pressure;Samples;Min_cycle;Max_cycle;Signal;HPM_P1;HPM_P2
2021/07/09 00:01:11;;;;;;;8.23;3.40;;;15.20;91.70;;;;;;5093267;28;20035;-77
2021/07/09 00:03:37;;;;;;;4.85;3.10;;;15.20;91.80;;;;;;5074501;28;20020;-77
2021/07/09 00:06:04;;;;;;;7.93;3.47;;;15.20;91.90;;;;;;5074405;28;20040;-77
2021/07/09 00:08:55;;;;;;;5.03;3.25;;;15.30;91.90;;;;;;5075753;28;20480;-82
2021/07/09 00:11:23;;;;;;;4.90;3.42;;;15.40;92.40;;;;;;5064627;28;20453;-82
2021/07/09 00:13:50;;;;;;;6.97;3.30;;;15.50;92.10;;;;;;5078593;28;20082;-81
2021/07/09 00:16:17;;;;;;;4.68;3.15;;;15.90;94.20;;;;;;5061762;28;20361;-81
2021/07/09 00:18:50;;;;;;;7.90;3.95;;;16.00;91.60;;;;;;5061637;28;20032;-80
2021/07/09 00:21:16;;;;;;;5.00;2.83;;;16.30;91.30;;;;;;5046851;28;20047;-80
2021/07/09 00:23:48;;;;;;;4.43;2.67;;;16.40;88.30;;;;;;5078252;28;20024;-80
2021/07/09 00:26:17;;;;;;;7.15;2.47;;;16.60;88.00;;;;;;5078707;28;20152;-81
2021/07/09 00:28:46;;;;;;;4.72;3.00;;;16.60;87.00;;;;;;5079045;28;20028;-81
2021/07/09 00:31:12;;;;;;;4.70;2.28;;;16.70;85.60;;;;;;5078334;28;20077;-82
2021/07/09 00:33:39;;;;;;;3.25;2.13;;;16.70;85.20;;;;;;5078552;28;20032;-80
2021/07/09 00:36:07;;;;;;;4.13;2.15;;;16.80;84.70;;;;;;5044611;28;20035;-81
2021/07/09 00:39:03;;;;;;;3.15;2.20;;;16.80;84.10;;;;;;5094028;28;20108;-82
2021/07/09 00:41:32;;;;;;;4.30;2.42;;;16.80;84.70;;;;;;5074654;28;20051;-82
2021/07/09 00:44:00;;;;;;;5.85;2.45;;;16.80;84.70;;;;;;5078439;28;20051;-81
2021/07/09 00:46:38;;;;;;;7.20;2.75;;;16.80;84.90;;;;;;5078181;28;20020;-82
2021/07/09 00:49:05;;;;;;;4.45;2.40;;;16.70;84.70;;;;;;5075106;28;20551;-81
2021/07/09 00:51:34;;;;;;;3.28;2.40;;;16.80;84.70;;;;;;5096080;28;20032;-81
2021/07/09 00:54:04;;;;;;;4.93;2.33;;;16.80;84.60;;;;;;5078065;28;20416;-82
2021/07/09 00:56:33;;;;;;;3.92;2.50;;;16.70;84.90;;;;;;5061092;28;20036;-82
2021/07/09 00:59:04;;;;;;;4.65;2.65;;;16.70;85.20;;;;;;5077819;28;20028;-82
2021/07/09 01:01:39;;;;;;;4.70;2.95;;;16.70;84.60;;;;;;5078246;28;20036;-82
2021/07/09 01:04:42;;;;;;;6.25;2.72;;;16.70;84.50;;;;;;5076904;28;20048;-82
2021/07/09 01:07:54;;;;;;;3.42;2.20;;;16.70;84.50;;;;;;5080799;28;20023;-81
2021/07/09 01:10:26;;;;;;;2.50;2.15;;;16.70;84.80;;;;;;5064456;28;20028;-81
2021/07/09 01:12:57;;;;;;;5.25;3.13;;;16.70;84.80;;;;;;5076953;28;20055;-81
2021/07/09 01:15:26;;;;;;;5.93;2.63;;;16.80;84.90;;;;;;5087681;28;20036;-82
2021/07/09 01:18:16;;;;;;;4.05;2.28;;;16.70;84.80;;;;;;5061083;28;20024;-82
2021/07/09 01:20:51;;;;;;;3.72;2.50;;;16.70;85.00;;;;;;5095426;28;20031;-82
2021/07/09 01:23:19;;;;;;;7.78;2.63;;;16.60;85.20;;;;;;5095335;28;20072;-78
2021/07/09 01:25:45;;;;;;;4.00;2.70;;;16.60;85.60;;;;;;5076968;28;20032;-78
2021/07/09 01:28:10;;;;;;;9.65;3.10;;;16.40;86.30;;;;;;5076832;28;20024;-77
2021/07/09 01:30:37;;;;;;;4.85;2.58;;;16.20;86.40;;;;;;5077218;28;20047;-77
2021/07/09 01:33:04;;;;;;;6.20;2.80;;;16.00;87.00;;;;;;5095157;28;20043;-77
2021/07/09 01:35:31;;;;;;;4.78;2.90;;;15.80;87.90;;;;;;5097189;28;20488;-77
2021/07/09 01:38:07;;;;;;;4.50;2.90;;;15.60;88.10;;;;;;5095331;28;20042;-77
2021/07/09 01:40:36;;;;;;;3.85;2.33;;;15.60;88.70;;;;;;5076901;28;20020;-78
2021/07/09 01:43:02;;;;;;;7.32;2.85;;;15.50;89.20;;;;;;5076977;28;20020;-77
2021/07/09 01:45:28;;;;;;;7.55;3.00;;;15.50;89.00;;;;;;5076506;28;20024;-77
2021/07/09 01:47:54;;;;;;;3.55;2.33;;;15.40;90.20;;;;;;5076558;28;20020;-77
2021/07/09 01:50:24;;;;;;;6.07;2.63;;;15.40;89.40;;;;;;5094934;28;20044;-76
2021/07/09 01:52:51;;;;;;;5.47;2.90;;;15.40;90.00;;;;;;5076374;28;20032;-77
2021/07/09 01:55:17;;;;;;;4.70;3.22;;;15.40;89.80;;;;;;5076416;28;20059;-79
2021/07/09 01:57:44;;;;;;;5.03;2.70;;;15.30;90.50;;;;;;5076389;28;20031;-78
2021/07/09 02:00:16;;;;;;;4.55;2.50;;;15.30;90.20;;;;;;5076358;28;20537;-78
2021/07/09 02:02:42;;;;;;;4.03;2.60;;;15.20;89.70;;;;;;5076611;28;20028;-76
2021/07/09 02:05:13;;;;;;;4.88;2.53;;;15.30;89.20;;;;;;5076213;28;20077;-77
2021/07/09 02:07:40;;;;;;;4.70;2.83;;;15.20;88.20;;;;;;5076495;28;20507;-77
2021/07/09 02:10:08;;;;;;;3.95;2.92;;;15.20;88.60;;;;;;5094353;28;20028;-76
2021/07/09 02:12:34;;;;;;;4.88;2.90;;;15.20;88.80;;;;;;5075863;28;20040;-77
2021/07/09 02:15:04;;;;;;;8.10;2.80;;;15.30;88.90;;;;;;5076320;28;20035;-78
2021/07/09 02:17:29;;;;;;;4.15;2.80;;;15.30;89.20;;;;;;5075954;28;20024;-78
2021/07/09 02:19:55;;;;;;;6.05;2.92;;;15.30;89.30;;;;;;5075737;28;20437;-77
2021/07/09 02:22:21;;;;;;;5.85;3.13;;;15.30;89.00;;;;;;5076102;28;20031;-77
2021/07/09 02:24:49;;;;;;;5.88;2.40;;;15.30;89.40;;;;;;5075766;28;20016;-77
2021/07/09 02:27:15;;;;;;;3.65;2.92;;;15.30;89.70;;;;;;5075553;28;20458;-76
2021/07/09 02:29:41;;;;;;;4.88;3.15;;;15.30;89.50;;;;;;5076020;28;20020;-76
2021/07/09 02:32:09;;;;;;;5.43;3.00;;;15.10;89.70;;;;;;5074913;28;20404;-77
2021/07/09 02:34:35;;;;;;;7.38;3.22;;;15.00;89.70;;;;;;5075817;28;20031;-76
2021/07/09 02:37:02;;;;;;;9.38;3.88;;;14.90;90.20;;;;;;5075373;28;20027;-76
2021/07/09 02:39:28;;;;;;;5.78;3.47;;;14.80;90.20;;;;;;5094026;28;20028;-76
2021/07/09 02:41:55;;;;;;;5.38;3.40;;;14.70;91.10;;;;;;5075839;28;20430;-76
2021/07/09 02:44:25;;;;;;;10.95;4.00;;;14.70;91.00;;;;;;5075730;28;20502;-76
2021/07/09 02:46:52;;;;;;;7.30;3.50;;;14.60;90.40;;;;;;5075640;28;20032;-76
2021/07/09 02:49:18;;;;;;;4.93;3.60;;;14.70;90.40;;;;;;5075468;28;20040;-77
2021/07/09 02:51:44;;;;;;;9.50;4.03;;;14.70;90.00;;;;;;5075326;28;20073;-75
2021/07/09 02:54:10;;;;;;;5.70;3.97;;;14.60;90.50;;;;;;5075530;28;20031;-77
2021/07/09 02:56:36;;;;;;;6.25;3.55;;;14.60;91.50;;;;;;5075440;28;20020;-76
2021/07/09 02:59:01;;;;;;;5.35;4.22;;;14.60;90.60;;;;;;5075434;28;20027;-76
2021/07/09 03:01:27;;;;;;;5.57;4.00;;;14.40;90.80;;;;;;5075563;28;20016;-76
2021/07/09 03:03:53;;;;;;;7.97;3.95;;;14.40;90.70;;;;;;5075317;28;20216;-76
2021/07/09 03:06:20;;;;;;;8.07;4.15;;;14.40;90.80;;;;;;5075341;28;20024;-76
2021/07/09 03:08:46;;;;;;;5.78;4.05;;;14.50;90.50;;;;;;5092975;28;20125;-76
2021/07/09 03:11:11;;;;;;;5.68;4.22;;;14.50;90.60;;;;;;5074777;28;20428;-76
2021/07/09 03:13:37;;;;;;;8.98;4.43;;;14.50;90.50;;;;;;5074852;28;20044;-76
2021/07/09 03:16:03;;;;;;;7.60;4.72;;;14.40;90.90;;;;;;5075118;28;20235;-76
2021/07/09 03:18:29;;;;;;;7.97;4.55;;;14.30;90.80;;;;;;5075180;28;20032;-77
2021/07/09 03:20:55;;;;;;;10.85;4.72;;;14.40;90.50;;;;;;5074743;28;20020;-76
2021/07/09 03:23:21;;;;;;;7.65;4.50;;;14.30;90.40;;;;;;5074831;28;20066;-77
2021/07/09 03:25:47;;;;;;;5.13;4.35;;;14.30;90.40;;;;;;5074925;28;20024;-77
2021/07/09 03:28:12;;;;;;;6.30;4.50;;;14.30;90.20;;;;;;5074524;28;20056;-77
2021/07/09 03:30:39;;;;;;;4.97;3.83;;;14.30;90.10;;;;;;5093168;28;20058;-77
2021/07/09 03:33:05;;;;;;;11.55;4.55;;;14.30;90.20;;;;;;5075041;28;20035;-76
2021/07/09 03:35:31;;;;;;;7.53;3.78;;;14.40;90.30;;;;;;5075094;28;20361;-78
2021/07/09 03:37:57;;;;;;;7.18;4.53;;;14.30;90.20;;;;;;5074641;28;20048;-78
2021/07/09 03:40:22;;;;;;;6.68;4.40;;;14.40;90.00;;;;;;5074763;28;20020;-77
2021/07/09 03:42:48;;;;;;;7.13;3.47;;;14.40;89.70;;;;;;5074544;28;20035;-77
2021/07/09 03:45:13;;;;;;;3.75;3.38;;;14.40;89.10;;;;;;5078596;28;20391;-77
2021/07/09 03:47:40;;;;;;;7.53;4.07;;;14.40;89.40;;;;;;5096912;28;20404;-77
2021/07/09 03:50:06;;;;;;;7.53;3.80;;;14.40;89.20;;;;;;5078554;28;20043;-77
2021/07/09 03:52:32;;;;;;;11.18;3.88;;;14.50;89.00;;;;;;5078471;28;20036;-77
2021/07/09 03:54:58;;;;;;;6.55;3.88;;;14.40;89.00;;;;;;5078578;28;20107;-77
2021/07/09 03:57:24;;;;;;;9.23;4.10;;;14.40;89.30;;;;;;5061890;28;20484;-74
2021/07/09 03:59:50;;;;;;;4.88;3.53;;;14.40;89.90;;;;;;5078400;28;20100;-74
2021/07/09 04:02:15;;;;;;;6.75;3.55;;;14.50;89.40;;;;;;5078798;28;20017;-77
2021/07/09 04:04:41;;;;;;;6.13;3.60;;;14.50;89.80;;;;;;5096794;28;20031;-77
2021/07/09 04:07:06;;;;;;;9.13;3.63;;;14.50;89.60;;;;;;5096575;28;20020;-76
2021/07/09 04:09:32;;;;;;;6.15;3.88;;;14.50;89.00;;;;;;5078740;28;20499;-77
2021/07/09 04:11:58;;;;;;;6.78;3.85;;;14.50;89.50;;;;;;5078164;28;20166;-75
2021/07/09 04:14:24;;;;;;;12.05;4.63;;;14.50;90.20;;;;;;5078791;28;20085;-82
2021/07/09 04:16:49;;;;;;;10.63;4.38;;;14.70;91.30;;;;;;5062184;28;20024;-79
2021/07/09 04:19:15;;;;;;;11.23;4.15;;;14.90;91.00;;;;;;5062712;28;20632;-78
2021/07/09 04:21:45;;;;;;;6.40;3.47;;;15.10;90.50;;;;;;5078946;28;20088;-79
2021/07/09 04:24:12;;;;;;;9.25;3.90;;;15.20;89.00;;;;;;5078264;28;20048;-77
2021/07/09 04:26:40;;;;;;;7.85;3.45;;;15.40;88.00;;;;;;5080722;28;20031;-81
2021/07/09 04:29:27;;;;;;;4.32;3.05;;;15.50;86.30;;;;;;5091335;28;20045;-80
2021/07/09 04:32:03;;;;;;;4.63;3.60;;;15.60;85.60;;;;;;5099815;28;20396;-80
2021/07/09 04:34:28;;;;;;;4.90;3.47;;;15.60;84.20;;;;;;5077921;28;20141;-76
2021/07/09 04:36:54;;;;;;;4.60;2.50;;;15.50;84.00;;;;;;5085362;28;20020;-76
2021/07/09 04:39:19;;;;;;;6.38;3.67;;;15.40;84.40;;;;;;5081772;28;20539;-76
2021/07/09 04:41:46;;;;;;;3.25;2.85;;;15.20;85.60;;;;;;5082592;28;20468;-76
2021/07/09 04:44:12;;;;;;;5.55;3.88;;;15.10;85.80;;;;;;5081343;28;20028;-76
2021/07/09 04:46:37;;;;;;;5.63;3.63;;;15.00;86.30;;;;;;5084144;28;20027;-76
2021/07/09 04:49:03;;;;;;;5.35;3.30;;;14.90;86.50;;;;;;5084441;28;20640;-77
2021/07/09 04:51:28;;;;;;;4.45;3.13;;;14.90;87.10;;;;;;5086608;28;20024;-77
2021/07/09 04:53:54;;;;;;;6.78;3.10;;;14.80;87.10;;;;;;5081464;28;20480;-77
2021/07/09 04:56:20;;;;;;;5.75;3.17;;;14.80;87.30;;;;;;5081596;28;20016;-76
2021/07/09 04:58:45;;;;;;;7.85;3.25;;;14.70;87.60;;;;;;5079809;28;20032;-77
2021/07/09 05:01:12;;;;;;;6.07;3.80;;;14.70;88.10;;;;;;5063042;28;20034;-76
2021/07/09 05:03:38;;;;;;;6.55;3.75;;;14.70;87.80;;;;;;5078897;28;20031;-77
2021/07/09 05:06:04;;;;;;;5.53;3.67;;;14.70;87.70;;;;;;5096203;28;20132;-77
2021/07/09 05:08:30;;;;;;;6.10;3.13;;;14.60;88.10;;;;;;5078470;28;20024;-77
2021/07/09 05:10:56;;;;;;;9.55;3.70;;;14.70;88.00;;;;;;5061418;28;20077;-76
2021/07/09 05:13:21;;;;;;;8.00;3.42;;;14.70;87.50;;;;;;5078628;28;20032;-77
2021/07/09 05:15:47;;;;;;;7.75;3.50;;;14.80;87.20;;;;;;5061302;28;20568;-77
2021/07/09 05:18:13;;;;;;;4.38;3.00;;;14.80;87.30;;;;;;5077425;28;20032;-77
2021/07/09 05:20:39;;;;;;;8.30;3.05;;;14.70;87.60;;;;;;5077529;28;20017;-77
2021/07/09 05:23:04;;;;;;;7.80;3.47;;;14.70;87.40;;;;;;5077098;28;20027;-77
2021/07/09 05:25:30;;;;;;;4.80;3.10;;;14.80;86.90;;;;;;5077023;28;20050;-77
2021/07/09 05:27:56;;;;;;;5.70;3.53;;;14.80;87.00;;;;;;5060292;28;20024;-77
2021/07/09 05:30:21;;;;;;;6.60;3.45;;;14.70;87.40;;;;;;5076347;28;20549;-77
2021/07/09 05:32:47;;;;;;;5.93;3.25;;;14.70;87.10;;;;;;5076441;28;20508;-78
2021/07/09 05:35:13;;;;;;;5.30;3.13;;;14.80;87.20;;;;;;5076529;28;20020;-77
2021/07/09 05:37:39;;;;;;;6.53;3.80;;;14.80;86.70;;;;;;5076708;28;20028;-77
2021/07/09 05:40:05;;;;;;;6.00;3.65;;;14.80;87.00;;;;;;5076461;28;20021;-77
2021/07/09 05:42:31;;;;;;;5.88;2.80;;;14.90;86.40;;;;;;5076600;28;20056;-77
2021/07/09 05:44:57;;;;;;;6.43;2.95;;;14.80;86.00;;;;;;5076296;28;20059;-77
2021/07/09 05:47:24;;;;;;;5.15;3.28;;;14.90;86.20;;;;;;5076736;28;20020;-77
2021/07/09 05:49:50;;;;;;;3.92;2.72;;;14.90;86.40;;;;;;5076590;28;20393;-77
2021/07/09 05:52:16;;;;;;;6.32;3.28;;;14.90;85.40;;;;;;5059774;28;20032;-77
2021/07/09 05:54:42;;;;;;;6.28;3.72;;;14.80;86.90;;;;;;5076745;28;20028;-76
2021/07/09 05:57:07;;;;;;;6.57;3.17;;;14.90;87.50;;;;;;5076414;28;20016;-77
2021/07/09 05:59:35;;;;;;;7.55;3.20;;;14.90;86.60;;;;;;5076550;28;20061;-77
2021/07/09 06:02:01;;;;;;;3.72;2.80;;;14.90;86.80;;;;;;5076381;28;20480;-77
2021/07/09 06:04:26;;;;;;;4.63;3.13;;;14.90;86.60;;;;;;5076273;28;20057;-77
2021/07/09 06:06:53;;;;;;;3.38;2.80;;;15.00;86.40;;;;;;5075747;28;20468;-77
2021/07/09 06:09:19;;;;;;;5.45;3.05;;;15.10;86.00;;;;;;5094169;28;20031;-76
2021/07/09 06:11:45;;;;;;;3.65;3.03;;;15.00;85.80;;;;;;5075597;28;20028;-77
2021/07/09 06:14:11;;;;;;;7.38;3.80;;;15.00;86.10;;;;;;5076671;28;20035;-77
2021/07/09 06:16:37;;;;;;;6.18;3.92;;;15.00;86.20;;;;;;5075953;28;20383;-77
2021/07/09 06:19:02;;;;;;;5.50;3.22;;;15.10;86.20;;;;;;5075755;28;20042;-77
2021/07/09 06:21:28;;;;;;;3.72;2.83;;;15.20;85.70;;;;;;5075735;28;20329;-77
2021/07/09 06:23:54;;;;;;;4.55;3.35;;;15.20;85.30;;;;;;5075561;28;20042;-77
2021/07/09 06:26:21;;;;;;;5.85;3.40;;;15.20;85.90;;;;;;5075723;28;20119;-77
2021/07/09 06:28:48;;;;;;;5.07;3.10;;;15.20;85.70;;;;;;5093827;28;20024;-78
2021/07/09 06:31:13;;;;;;;8.07;3.35;;;15.30;85.00;;;;;;5075472;28;20024;-78
2021/07/09 06:33:39;;;;;;;6.68;3.13;;;15.30;85.10;;;;;;5075229;28;20445;-77
2021/07/09 06:36:05;;;;;;;5.18;3.33;;;15.40;85.00;;;;;;5093172;28;20020;-78
2021/07/09 06:38:31;;;;;;;3.35;2.67;;;15.50;84.60;;;;;;5093955;28;20031;-77
2021/07/09 06:40:57;;;;;;;9.02;3.60;;;15.60;84.30;;;;;;5075402;28;20024;-77
2021/07/09 06:43:22;;;;;;;5.70;2.85;;;15.70;84.20;;;;;;5075679;28;20056;-78
2021/07/09 06:45:48;;;;;;;3.03;2.72;;;15.70;84.20;;;;;;5075597;28;20027;-77
2021/07/09 06:48:14;;;;;;;5.10;3.10;;;15.60;83.60;;;;;;5075580;28;20034;-78
2021/07/09 06:50:39;;;;;;;4.07;2.70;;;15.80;84.00;;;;;;5075448;28;20048;-77
2021/07/09 06:53:05;;;;;;;5.18;3.15;;;15.80;83.80;;;;;;5058732;28;20152;-77
2021/07/09 06:55:33;;;;;;;4.90;3.28;;;15.90;83.10;;;;;;5093577;28;20078;-77
2021/07/09 06:57:58;;;;;;;4.55;3.28;;;16.00;84.40;;;;;;5075475;28;20036;-77
2021/07/09 07:00:26;;;;;;;3.33;2.70;;;16.20;83.20;;;;;;5075176;28;20069;-77
2021/07/09 07:02:51;;;;;;;4.60;3.15;;;16.30;81.50;;;;;;5075204;28;20392;-78
2021/07/09 07:05:17;;;;;;;4.55;2.95;;;16.50;80.40;;;;;;5074733;28;20016;-78
2021/07/09 07:07:43;;;;;;;4.70;2.72;;;16.50;81.50;;;;;;5075164;28;20027;-78
2021/07/09 07:10:10;;;;;;;6.85;3.65;;;16.40;80.70;;;;;;5075343;28;20020;-77
2021/07/09 07:12:37;;;;;;;7.53;3.10;;;16.30;80.90;;;;;;5058349;28;20422;-77
2021/07/09 07:15:05;;;;;;;6.10;3.55;;;16.30;82.00;;;;;;5074796;28;20491;-77
2021/07/09 07:17:31;;;;;;;9.27;3.33;;;16.20;81.90;;;;;;5074257;28;20041;-78
2021/07/09 07:19:59;;;;;;;5.25;3.10;;;16.30;81.10;;;;;;5058980;28;20028;-77
2021/07/09 07:22:25;;;;;;;7.65;3.47;;;16.30;81.80;;;;;;5075756;28;20031;-78
2021/07/09 07:24:52;;;;;;;7.65;4.50;;;16.50;82.10;;;;;;5074362;28;20433;-78
2021/07/09 07:27:24;;;;;;;4.28;2.65;;;16.40;81.00;;;;;;5075143;28;20388;-77
2021/07/09 07:29:55;;;;;;;4.85;3.17;;;16.40;81.00;;;;;;5075488;28;20027;-77
2021/07/09 07:32:23;;;;;;;4.35;3.00;;;16.40;80.60;;;;;;5076596;28;20036;-77
2021/07/09 07:34:50;;;;;;;3.78;2.97;;;16.40;79.60;;;;;;5093171;28;20020;-78
2021/07/09 07:37:16;;;;;;;5.50;3.72;;;16.30;81.00;;;;;;5075064;28;20036;-77
2021/07/09 07:39:42;;;;;;;5.32;3.28;;;16.50;81.50;;;;;;5074806;28;20020;-77
2021/07/09 07:42:08;;;;;;;5.00;3.38;;;16.60;80.30;;;;;;5092861;28;20024;-77
2021/07/09 07:44:33;;;;;;;7.22;3.20;;;16.80;80.80;;;;;;5058001;28;20036;-78
2021/07/09 07:46:59;;;;;;;7.18;3.28;;;17.00;78.10;;;;;;5092715;28;20396;-77
2021/07/09 07:49:25;;;;;;;4.63;3.03;;;17.20;77.60;;;;;;5074135;28;20047;-77
2021/07/09 07:51:51;;;;;;;5.55;3.40;;;17.30;76.20;;;;;;5074590;28;20059;-77
2021/07/09 07:54:18;;;;;;;7.15;3.00;;;17.30;76.60;;;;;;5092681;28;20464;-78
2021/07/09 07:56:45;;;;;;;4.80;3.30;;;17.20;77.90;;;;;;5092738;28;20077;-78
2021/07/09 07:59:11;;;;;;;6.22;3.22;;;17.20;77.40;;;;;;5074175;28;20024;-79
2021/07/09 08:01:36;;;;;;;5.25;2.63;;;17.30;76.40;;;;;;5074107;28;20356;-78
2021/07/09 08:04:03;;;;;;;7.55;4.43;;;17.20;77.00;;;;;;5073942;28;20110;-79
2021/07/09 08:06:29;;;;;;;6.78;3.15;;;17.40;75.30;;;;;;5073934;28;20111;-78
2021/07/09 08:08:54;;;;;;;4.78;2.92;;;17.50;74.50;;;;;;5074244;28;20573;-78
2021/07/09 08:11:20;;;;;;;5.05;3.08;;;17.30;75.10;;;;;;5074851;28;20027;-78
2021/07/09 08:13:45;;;;;;;5.45;3.10;;;17.20;76.40;;;;;;5074639;28;20032;-78
2021/07/09 08:16:11;;;;;;;9.73;3.50;;;17.20;76.20;;;;;;5074226;28;20384;-77
2021/07/09 08:18:37;;;;;;;5.90;3.47;;;17.30;75.20;;;;;;5074962;28;20031;-78
2021/07/09 08:21:03;;;;;;;5.05;3.35;;;17.10;76.70;;;;;;5074773;28;20028;-78
2021/07/09 08:23:29;;;;;;;4.93;3.35;;;17.00;77.60;;;;;;5074009;28;20500;-78
2021/07/09 08:25:55;;;;;;;6.72;3.95;;;17.00;77.80;;;;;;5074202;28;20062;-78
2021/07/09 08:28:21;;;;;;;8.35;3.50;;;17.20;76.60;;;;;;5075194;28;20035;-78
2021/07/09 08:30:47;;;;;;;7.53;3.10;;;17.30;77.50;;;;;;5076998;28;20498;-78
2021/07/09 08:33:13;;;;;;;6.05;3.30;;;17.40;76.50;;;;;;5078028;28;20036;-78
2021/07/09 08:35:38;;;;;;;5.63;3.53;;;17.40;76.80;;;;;;5078053;28;20024;-78
2021/07/09 08:38:04;;;;;;;11.90;3.83;;;17.50;77.00;;;;;;5077463;28;20035;-78
2021/07/09 08:40:30;;;;;;;5.43;3.03;;;17.70;76.10;;;;;;5078158;28;20047;-78
2021/07/09 08:42:55;;;;;;;6.70;3.95;;;17.80;75.50;;;;;;5078737;28;20060;-78
2021/07/09 08:45:21;;;;;;;9.05;3.67;;;17.90;74.10;;;;;;5061253;28;20118;-77
2021/07/09 08:47:48;;;;;;;6.32;3.60;;;18.00;75.30;;;;;;5078432;28;20479;-77
2021/07/09 08:50:16;;;;;;;9.43;4.03;;;18.20;73.60;;;;;;5078684;28;20044;-77
2021/07/09 08:52:42;;;;;;;7.05;3.50;;;18.30;71.80;;;;;;5095826;28;20036;-77
2021/07/09 08:55:11;;;;;;;5.95;3.17;;;18.40;70.80;;;;;;5078430;28;20427;-77
2021/07/09 08:57:42;;;;;;;6.63;3.50;;;18.60;70.30;;;;;;5077673;28;20097;-77
2021/07/09 09:00:33;;;;;;;3.75;2.90;;;18.50;70.90;;;;;;5061302;28;20021;-76
2021/07/09 09:02:59;;;;;;;10.43;3.72;;;18.50;71.00;;;;;;5064033;28;20040;-77
2021/07/09 09:05:26;;;;;;;5.10;3.08;;;18.50;70.60;;;;;;5077683;28;20024;-77
2021/07/09 09:08:06;;;;;;;5.93;3.10;;;18.70;70.00;;;;;;5076738;28;20097;-77
2021/07/09 09:10:33;;;;;;;6.35;2.97;;;18.70;70.50;;;;;;5077082;28;20131;-77
2021/07/09 09:13:06;;;;;;;4.63;3.20;;;18.80;70.50;;;;;;5077585;28;20039;-77
2021/07/09 09:15:31;;;;;;;6.10;3.00;;;18.80;70.90;;;;;;5077718;28;20111;-76
2021/07/09 09:18:00;;;;;;;5.80;2.88;;;18.70;68.90;;;;;;5078337;28;20059;-79
2021/07/09 09:20:29;;;;;;;6.95;3.30;;;18.70;69.10;;;;;;5076700;28;20016;-76
2021/07/09 09:22:57;;;;;;;6.80;2.70;;;18.80;68.50;;;;;;5076754;28;20111;-76
2021/07/09 09:25:31;;;;;;;5.30;3.40;;;18.80;68.20;;;;;;5076923;28;20112;-76
2021/07/09 09:27:58;;;;;;;4.55;3.15;;;18.90;68.30;;;;;;5076809;28;20032;-76
2021/07/09 09:30:24;;;;;;;6.22;3.05;;;19.00;68.50;;;;;;5077049;28;20020;-77
2021/07/09 09:32:51;;;;;;;8.38;3.30;;;19.10;68.20;;;;;;5077637;28;20472;-77
2021/07/09 09:35:37;;;;;;;6.82;3.33;;;18.90;69.20;;;;;;5076709;28;20020;-76
2021/07/09 09:38:05;;;;;;;7.93;3.03;;;18.50;70.60;;;;;;5077245;28;20480;-76
2021/07/09 09:40:34;;;;;;;6.80;3.58;;;18.60;70.10;;;;;;5075191;28;20430;-76
2021/07/09 09:43:08;;;;;;;4.63;3.53;;;18.60;70.10;;;;;;5075629;28;20024;-76
2021/07/09 09:45:35;;;;;;;7.88;3.42;;;18.60;68.30;;;;;;5076530;28;20024;-76
2021/07/09 09:48:11;;;;;;;5.97;3.08;;;18.60;69.00;;;;;;5076658;28;20381;-76
2021/07/09 09:50:48;;;;;;;5.05;3.05;;;18.80;67.50;;;;;;5076446;28;20048;-76
2021/07/09 09:53:15;;;;;;;6.78;2.90;;;19.00;67.80;;;;;;5076181;28;20036;-76
2021/07/09 09:55:42;;;;;;;6.05;3.65;;;19.20;67.60;;;;;;5075400;28;20046;-76
2021/07/09 09:58:13;;;;;;;5.90;3.25;;;19.20;66.80;;;;;;5093328;28;20063;-76
2021/07/09 10:00:41;;;;;;;5.60;4.13;;;19.30;68.40;;;;;;5075323;28;20073;-76
2021/07/09 10:03:08;;;;;;;5.63;3.40;;;19.20;66.40;;;;;;5075165;28;20028;-76
2021/07/09 10:05:45;;;;;;;5.10;3.47;;;19.10;67.40;;;;;;5075434;28;20027;-77
2021/07/09 10:08:12;;;;;;;7.28;3.55;;;19.40;66.30;;;;;;5075732;28;20028;-76
2021/07/09 10:10:39;;;;;;;5.20;3.05;;;19.50;65.50;;;;;;5075533;28;20361;-77
2021/07/09 10:13:06;;;;;;;5.68;3.38;;;19.70;64.60;;;;;;5093519;28;20043;-77
2021/07/09 10:15:31;;;;;;;3.50;3.17;;;20.00;63.10;;;;;;5075931;28;20556;-77
2021/07/09 10:17:58;;;;;;;7.90;3.88;;;20.10;63.70;;;;;;5075540;28;20123;-77
2021/07/09 10:20:24;;;;;;;5.88;3.58;;;20.30;63.60;;;;;;5075489;28;20395;-77
2021/07/09 10:22:51;;;;;;;4.05;3.42;;;20.60;61.70;;;;;;5075804;28;20069;-77
2021/07/09 10:25:18;;;;;;;5.95;2.80;;;20.90;60.60;;;;;;5093781;28;20023;-76
2021/07/09 10:27:45;;;;;;;5.53;3.42;;;21.00;59.20;;;;;;5093847;28;20044;-76
2021/07/09 10:30:12;;;;;;;4.43;3.05;;;20.70;60.90;;;;;;5094030;28;20082;-76
2021/07/09 10:32:44;;;;;;;8.48;3.67;;;20.10;62.10;;;;;;5075789;28;20541;-77
2021/07/09 10:35:31;;;;;;;6.50;4.35;;;19.40;65.50;;;;;;5075575;28;20115;-75
2021/07/09 10:38:11;;;;;;;4.22;3.83;;;19.20;66.10;;;;;;5075624;28;20028;-77
2021/07/09 10:40:37;;;;;;;8.15;3.72;;;19.00;67.20;;;;;;5075704;28;20028;-77
2021/07/09 10:43:06;;;;;;;10.60;3.80;;;18.90;66.50;;;;;;5079112;28;20499;-76
2021/07/09 10:45:32;;;;;;;5.68;4.18;;;18.70;67.20;;;;;;5100696;28;20047;-77
2021/07/09 10:48:12;;;;;;;7.70;3.75;;;18.50;67.40;;;;;;5080918;28;20047;-77
2021/07/09 10:50:54;;;;;;;7.90;4.05;;;18.70;69.30;;;;;;5077898;28;20109;-77
2021/07/09 10:53:29;;;;;;;9.70;4.60;;;19.30;68.00;;;;;;5076043;28;20093;-77
2021/07/09 10:56:04;;;;;;;;;;;19.60;64.40;;;;;;5060763;28;20365;-77
2021/07/09 10:58:33;;;;;;;8.10;3.97;;;19.80;64.30;;;;;;5075096;28;19904;-77
2021/07/09 11:01:16;;;;;;;6.68;2.83;;;20.00;64.60;;;;;;5094269;28;20062;-77
2021/07/09 11:03:53;;;;;;;6.78;2.92;;;20.50;63.10;;;;;;5075979;28;20020;-77
2021/07/09 11:06:31;;;;;;;6.90;2.65;;;21.00;59.80;;;;;;5075373;28;20494;-76
2021/07/09 11:09:02;;;;;;;4.53;2.33;;;21.40;55.40;;;;;;5075056;28;20028;-77
2021/07/09 11:11:47;;;;;;;5.82;2.55;;;21.40;54.80;;;;;;5076672;28;20027;-76
2021/07/09 11:14:33;;;;;;;;;;;21.30;53.50;;;;;;5076363;28;20461;-77
2021/07/09 11:17:12;;;;;;;4.85;2.47;;;21.00;53.60;;;;;;5075677;28;20002;-76
2021/07/09 11:19:40;;;;;;;6.10;2.40;;;20.80;55.80;;;;;;5075308;28;20119;-77
2021/07/09 11:22:12;;;;;;;4.15;2.25;;;20.60;57.20;;;;;;5074726;28;20019;-77
2021/07/09 11:24:49;;;;;;;5.07;2.60;;;20.40;57.70;;;;;;5075024;28;20438;-77
2021/07/09 11:27:15;;;;;;;3.78;2.28;;;20.50;58.10;;;;;;5074820;28;20028;-77
2021/07/09 11:29:45;;;;;;;4.53;2.33;;;20.90;57.70;;;;;;5074419;28;20028;-77
2021/07/09 11:32:16;;;;;;;4.13;1.83;;;21.30;55.90;;;;;;5068466;28;20028;-77
2021/07/09 11:34:46;;;;;;;2.50;1.67;;;21.70;50.70;;;;;;5074467;28;20031;-77
2021/07/09 11:37:17;;;;;;;3.00;1.88;;;21.70;49.50;;;;;;5074699;28;20024;-77
2021/07/09 11:39:45;;;;;;;4.00;2.20;;;22.10;50.00;;;;;;5075092;28;20054;-77
2021/07/09 11:42:22;;;;;;;3.17;1.80;;;22.40;49.80;;;;;;5074614;28;20472;-78
2021/07/09 11:44:57;;;;;;;3.97;1.95;;;22.40;49.10;;;;;;5074477;28;20027;-77
2021/07/09 11:47:27;;;;;;;4.15;1.98;;;22.10;48.50;;;;;;5074925;28;20032;-75
2021/07/09 11:50:00;;;;;;;2.40;1.77;;;21.70;49.80;;;;;;5074265;28;20050;-77
2021/07/09 11:52:31;;;;;;;4.85;2.05;;;21.50;51.80;;;;;;5074337;28;20124;-77
2021/07/09 11:54:59;;;;;;;3.00;1.98;;;21.20;52.00;;;;;;5074353;28;20023;-76
2021/07/09 11:57:30;;;;;;;3.08;2.20;;;21.00;53.40;;;;;;5069580;28;20024;-76
2021/07/09 11:59:58;;;;;;;3.03;2.05;;;20.60;55.40;;;;;;5073955;28;20023;-76
2021/07/09 12:02:28;;;;;;;4.38;2.03;;;20.60;55.80;;;;;;5074345;28;20085;-77
2021/07/09 12:04:59;;;;;;;3.42;2.22;;;20.70;55.60;;;;;;5075897;28;20051;-76
2021/07/09 12:07:36;;;;;;;3.90;1.88;;;20.90;54.50;;;;;;5096448;28;20107;-76
2021/07/09 12:10:25;;;;;;;2.30;2.00;;;21.00;54.00;;;;;;5096791;28;20016;-76
2021/07/09 12:12:53;;;;;;;2.10;1.63;;;21.50;53.20;;;;;;5077984;28;20127;-77
2021/07/09 12:15:24;;;;;;;3.42;1.60;;;21.70;50.50;;;;;;5078553;28;20024;-77
2021/07/09 12:18:00;;;;;;;3.38;1.75;;;21.80;50.50;;;;;;5077721;28;20055;-76
2021/07/09 12:20:38;;;;;;;2.28;1.60;;;22.20;51.10;;;;;;5096312;28;20027;-76
2021/07/09 12:23:06;;;;;;;3.58;1.98;;;22.40;52.10;;;;;;5078171;28;20028;-76
2021/07/09 12:25:36;;;;;;;4.70;1.85;;;22.50;51.40;;;;;;5077942;28;20043;-75
2021/07/09 12:28:06;;;;;;;5.00;2.00;;;22.60;52.70;;;;;;5077736;28;20032;-77
2021/07/09 12:30:47;;;;;;;5.03;2.17;;;22.90;51.40;;;;;;5078100;28;20446;-76
2021/07/09 12:33:16;;;;;;;3.67;1.50;;;23.30;49.40;;;;;;5077765;28;20036;-76
2021/07/09 12:35:42;;;;;;;5.03;1.50;;;23.00;47.80;;;;;;5077958;28;20372;-76
2021/07/09 12:38:10;;;;;;;2.13;1.30;;;23.10;49.20;;;;;;5077941;28;20028;-76
2021/07/09 12:40:43;;;;;;;2.13;1.17;;;23.20;47.80;;;;;;5077308;28;20016;-77
2021/07/09 12:43:21;;;;;;;2.60;1.10;;;23.20;47.30;;;;;;5078539;28;20435;-77
2021/07/09 12:46:00;;;;;;;1.30;1.08;;;23.10;44.10;;;;;;5061175;28;20028;-77
2021/07/09 12:48:37;;;;;;;3.55;1.50;;;23.20;42.50;;;;;;5078294;28;20379;-77
2021/07/09 12:51:24;;;;;;;3.00;1.35;;;23.40;44.40;;;;;;5077634;28;20055;-78
2021/07/09 12:53:59;;;;;;;2.45;1.33;;;23.50;43.70;;;;;;5077535;28;20055;-77
2021/07/09 12:56:28;;;;;;;3.83;1.40;;;23.60;42.60;;;;;;5077797;28;20040;-77